Nykobing, Denmark
Current Conditions -  °F | °C
As of 4:50 AM on Saturday 25 Oct 2014 (Local Time) from EKRK Reporting Station
Broken Clouds Broken Clouds  
Wind Chill: 43°   Ceiling: 1100
Heat Index: 48°   Visibility: 3mi
Dew Point: 46°   Wind: 13mph
Humidity: 93%   Direction: 170°S
Pressure: 30"   Gusts: NA
Location:  55.94°N, 11.65°E
Report Text: EKRK 250250Z AUTO 17011KT 5000NDV SCT009/// BKN011///09/08 Q1016
Loading
Personal Weather Stations






























Interactive Weather Map New forecast layout! Learn more

10-Day Weather Forecast

Advertisements
Track Severe Weather on mobile